createdAt,value
2023-01-17T00:00:47.995Z,6.49
2023-01-17T00:01:47.957Z,6.46
2023-01-17T00:02:48.001Z,6.52
2023-01-17T00:03:47.954Z,6.52
2023-01-17T00:04:47.934Z,6.56
2023-01-17T00:05:47.916Z,6.51
2023-01-17T00:06:47.926Z,6.42
2023-01-17T00:07:47.900Z,6.48
2023-01-17T00:08:47.877Z,6.56
2023-01-17T00:09:47.876Z,6.44
2023-01-17T00:10:47.859Z,6.54
2023-01-17T00:11:47.844Z,6.52
2023-01-17T00:12:47.861Z,6.59
2023-01-17T00:13:47.837Z,6.57
2023-01-17T00:14:47.813Z,6.57
2023-01-17T00:15:47.835Z,6.35
2023-01-17T00:16:47.786Z,6.28
2023-01-17T00:17:47.799Z,6.27
2023-01-17T00:18:47.796Z,6.35
2023-01-17T00:19:47.756Z,6.36
2023-01-17T00:20:47.747Z,6.36
2023-01-17T00:21:47.745Z,6.30
2023-01-17T00:22:47.725Z,6.36
2023-01-17T00:23:47.714Z,6.46
2023-01-17T00:24:47.746Z,6.52
2023-01-17T00:25:47.693Z,6.49
2023-01-17T00:26:47.676Z,6.51
2023-01-17T00:27:47.673Z,6.38
2023-01-17T00:28:47.686Z,6.38
2023-01-17T00:29:47.644Z,6.46
2023-01-17T00:30:47.653Z,6.56
2023-01-17T00:31:47.690Z,6.48
2023-01-17T00:32:47.616Z,6.44
2023-01-17T00:33:47.607Z,6.39
2023-01-17T00:34:47.604Z,6.48
2023-01-17T00:35:47.604Z,6.30
2023-01-17T00:36:47.564Z,6.51
2023-01-17T00:37:47.562Z,6.48
2023-01-17T00:38:47.543Z,6.45
2023-01-17T00:39:47.563Z,6.60
2023-01-17T00:40:47.546Z,6.78
2023-01-17T00:41:47.525Z,6.77
2023-01-17T00:42:47.514Z,6.74
2023-01-17T00:43:47.492Z,6.62
2023-01-17T00:44:47.485Z,6.57
2023-01-17T00:45:47.462Z,6.67
2023-01-17T00:46:47.481Z,6.69
2023-01-17T00:47:47.446Z,6.75
2023-01-17T00:48:47.432Z,6.78
2023-01-17T00:49:47.431Z,6.75
2023-01-17T00:50:47.411Z,6.78
2023-01-17T00:51:47.409Z,6.72
2023-01-17T00:52:47.414Z,6.66
2023-01-17T00:53:47.407Z,6.77
2023-01-17T00:54:47.372Z,6.87
2023-01-17T00:55:47.364Z,6.89
2023-01-17T00:56:47.341Z,6.95
2023-01-17T00:57:47.362Z,6.95
2023-01-17T00:58:47.322Z,6.79
2023-01-17T00:59:47.313Z,6.87
2023-01-17T01:00:47.383Z,6.84
2023-01-17T01:01:47.453Z,6.79
2023-01-17T01:02:47.341Z,6.82
2023-01-17T01:03:47.309Z,6.92
2023-01-17T01:04:47.261Z,7.03
2023-01-17T01:05:47.251Z,7.02
2023-01-17T01:06:47.233Z,6.93
2023-01-17T01:07:47.244Z,6.77
2023-01-17T01:08:47.243Z,6.67
2023-01-17T01:09:47.201Z,6.64
2023-01-17T01:10:47.191Z,6.62
2023-01-17T01:11:47.189Z,6.72
2023-01-17T01:12:47.169Z,6.78
2023-01-17T01:13:47.166Z,6.85
2023-01-17T01:14:47.160Z,6.87
2023-01-17T01:15:47.140Z,6.88
2023-01-17T01:16:47.129Z,6.84
2023-01-17T01:17:47.122Z,6.88
2023-01-17T01:18:47.111Z,6.96
2023-01-17T01:19:47.118Z,7.05
2023-01-17T01:20:47.085Z,7.00
2023-01-17T01:21:47.081Z,7.02
2023-01-17T01:22:47.061Z,6.89
2023-01-17T01:23:47.052Z,6.78
2023-01-17T01:24:47.045Z,6.87
2023-01-17T01:25:47.050Z,6.92
2023-01-17T01:26:47.018Z,6.89
2023-01-17T01:27:47.012Z,6.97
2023-01-17T01:28:46.997Z,6.93
2023-01-17T01:29:46.991Z,6.96
2023-01-17T01:30:47.008Z,6.81
2023-01-17T01:31:47.028Z,6.70
2023-01-17T01:32:46.949Z,6.87
2023-01-17T01:33:46.943Z,6.89
2023-01-17T01:34:46.928Z,6.89
2023-01-17T01:35:46.942Z,6.89
2023-01-17T01:36:46.922Z,6.74
2023-01-17T01:37:46.899Z,6.66
2023-01-17T01:38:46.882Z,6.67
2023-01-17T01:39:46.877Z,6.79
2023-01-17T01:40:46.882Z,6.82
2023-01-17T01:41:46.878Z,6.87
2023-01-17T01:42:46.840Z,6.95
2023-01-17T01:43:46.903Z,6.84
2023-01-17T01:44:46.820Z,6.79
2023-01-17T01:45:46.851Z,6.70
2023-01-17T01:46:46.808Z,6.79
2023-01-17T01:47:46.807Z,6.88
2023-01-17T01:48:46.778Z,6.79
2023-01-17T01:49:46.768Z,6.75
2023-01-17T01:50:46.759Z,6.66
2023-01-17T01:51:46.749Z,6.57
2023-01-17T01:52:46.759Z,6.54
2023-01-17T01:53:46.728Z,6.62
2023-01-17T01:54:46.722Z,6.63
2023-01-17T01:55:46.704Z,6.54
2023-01-17T01:56:46.692Z,6.49
2023-01-17T01:57:46.688Z,6.60
2023-01-17T01:58:46.686Z,6.52
2023-01-17T01:59:46.658Z,6.56
2023-01-17T02:00:46.764Z,6.69
2023-01-17T02:01:46.711Z,6.69
2023-01-17T02:02:46.627Z,6.70
2023-01-17T02:03:46.691Z,6.54
2023-01-17T02:04:46.597Z,6.52
2023-01-17T02:05:46.607Z,6.62
2023-01-17T02:06:46.590Z,6.67
2023-01-17T02:07:46.583Z,6.70
2023-01-17T02:08:46.570Z,6.66
2023-01-17T02:09:46.589Z,6.67
2023-01-17T02:10:46.559Z,6.62
2023-01-17T02:11:46.525Z,6.67
2023-01-17T02:12:46.526Z,6.63
2023-01-17T02:13:46.513Z,6.59
2023-01-17T02:14:46.526Z,6.51
2023-01-17T02:15:46.486Z,6.57
2023-01-17T02:16:46.548Z,6.60
2023-01-17T02:17:46.473Z,6.60
2023-01-17T02:18:46.446Z,6.59
2023-01-17T02:19:46.446Z,6.59
2023-01-17T02:20:46.448Z,6.57
2023-01-17T02:21:46.416Z,6.51
2023-01-17T02:22:46.410Z,6.54
2023-01-17T02:23:46.410Z,6.52
2023-01-17T02:24:46.387Z,6.44
2023-01-17T02:25:46.421Z,6.45
2023-01-17T02:26:46.370Z,6.30
2023-01-17T02:27:46.347Z,6.39
2023-01-17T02:28:46.344Z,6.41
2023-01-17T02:29:53.411Z,6.46
2023-01-17T02:30:46.319Z,6.48
2023-01-17T02:31:46.404Z,6.51
2023-01-17T02:32:46.300Z,6.36
2023-01-17T02:33:46.296Z,6.27
2023-01-17T02:34:46.278Z,6.35
2023-01-17T02:35:46.269Z,6.16
2023-01-17T02:36:46.248Z,6.14
2023-01-17T02:37:46.269Z,6.12
2023-01-17T02:38:46.227Z,6.01
2023-01-17T02:39:46.217Z,6.05
2023-01-17T02:40:46.207Z,6.01
2023-01-17T02:41:46.197Z,6.07
2023-01-17T02:42:46.181Z,6.05
2023-01-17T02:43:46.213Z,5.98
2023-01-17T02:44:46.163Z,5.98
2023-01-17T02:45:46.172Z,6.09
2023-01-17T02:46:46.139Z,5.99
2023-01-17T02:47:46.128Z,5.98
2023-01-17T02:48:46.117Z,5.90
2023-01-17T02:49:46.128Z,5.80
2023-01-17T02:50:46.096Z,5.79
2023-01-17T02:51:46.088Z,5.93
2023-01-17T02:52:46.077Z,5.93
2023-01-17T02:53:46.075Z,5.84
2023-01-17T02:54:46.050Z,5.93
2023-01-17T02:55:46.057Z,5.86
2023-01-17T02:56:46.036Z,5.82
2023-01-17T02:57:46.016Z,5.79
2023-01-17T02:58:46.006Z,5.87
2023-01-17T02:59:45.998Z,5.66
2023-01-17T03:00:46.062Z,5.73
2023-01-17T03:01:46.081Z,5.68
2023-01-17T03:02:46.038Z,5.84
2023-01-17T03:03:45.957Z,5.87
2023-01-17T03:04:45.992Z,5.91
2023-01-17T03:05:45.927Z,5.84
2023-01-17T03:06:45.925Z,5.84
2023-01-17T03:07:45.908Z,5.75
2023-01-17T03:08:45.894Z,5.82
2023-01-17T03:09:45.906Z,5.90
2023-01-17T03:10:45.876Z,5.82
2023-01-17T03:11:45.886Z,5.72
2023-01-17T03:12:45.847Z,5.76
2023-01-17T03:13:45.835Z,5.80
2023-01-17T03:14:45.823Z,5.87
2023-01-17T03:15:45.834Z,5.98
2023-01-17T03:16:45.828Z,5.91
2023-01-17T03:17:45.815Z,5.82
2023-01-17T03:18:45.785Z,5.86
2023-01-17T03:19:45.774Z,5.90
2023-01-17T03:20:45.770Z,5.84
2023-01-17T03:21:45.764Z,5.87
2023-01-17T03:22:45.740Z,5.89
2023-01-17T03:23:45.746Z,5.91
2023-01-17T03:24:45.722Z,5.94
2023-01-17T03:25:45.744Z,6.02
2023-01-17T03:26:45.693Z,5.99
2023-01-17T03:27:45.688Z,5.91
2023-01-17T03:28:45.705Z,5.83
2023-01-17T03:29:45.663Z,5.80
2023-01-17T03:30:45.676Z,5.79
2023-01-17T03:31:45.633Z,5.84
2023-01-17T03:32:45.622Z,5.80
2023-01-17T03:33:45.613Z,5.94
2023-01-17T03:34:45.634Z,5.91
2023-01-17T03:35:45.632Z,5.97
2023-01-17T03:36:45.575Z,6.04
2023-01-17T03:37:45.566Z,5.93
2023-01-17T03:38:45.554Z,6.04
2023-01-17T03:39:45.550Z,6.09
2023-01-17T03:40:45.554Z,6.07
2023-01-17T03:41:45.556Z,5.94
2023-01-17T03:42:45.502Z,5.83
2023-01-17T03:43:45.504Z,5.82
2023-01-17T03:44:45.510Z,5.90
2023-01-17T03:45:45.551Z,5.90
2023-01-17T03:46:45.523Z,5.94
2023-01-17T03:47:45.452Z,6.02
2023-01-17T03:48:45.443Z,6.11
2023-01-17T03:49:45.433Z,6.07
2023-01-17T03:50:45.438Z,6.02
2023-01-17T03:51:45.442Z,5.97
2023-01-17T03:52:45.401Z,6.04
2023-01-17T03:53:45.383Z,6.04
2023-01-17T03:54:45.387Z,6.04
2023-01-17T03:55:45.363Z,5.98
2023-01-17T03:56:45.353Z,5.97
2023-01-17T03:57:45.365Z,5.99
2023-01-17T03:58:45.350Z,5.98
2023-01-17T03:59:45.343Z,5.89
2023-01-17T04:00:45.395Z,5.94
2023-01-17T04:01:45.455Z,5.99
2023-01-17T04:02:45.367Z,5.98
2023-01-17T04:03:45.297Z,6.05
2023-01-17T04:04:45.275Z,6.05
2023-01-17T04:05:45.251Z,6.04
2023-01-17T04:06:45.250Z,5.99
2023-01-17T04:07:45.231Z,5.99
2023-01-17T04:08:45.221Z,6.02
2023-01-17T04:09:45.234Z,6.11
2023-01-17T04:10:45.200Z,5.99
2023-01-17T04:11:45.184Z,6.09
2023-01-17T04:12:45.181Z,6.08
2023-01-17T04:13:45.164Z,6.07
2023-01-17T04:14:45.171Z,6.08
2023-01-17T04:15:45.167Z,5.99
2023-01-17T04:16:45.195Z,5.91
2023-01-17T04:17:45.111Z,5.79
2023-01-17T04:18:45.130Z,5.82
2023-01-17T04:19:45.112Z,5.72
2023-01-17T04:20:45.099Z,5.64
2023-01-17T04:21:45.082Z,5.57
2023-01-17T04:22:45.060Z,5.44
2023-01-17T04:23:45.060Z,5.46
2023-01-17T04:24:45.062Z,5.48
2023-01-17T04:25:45.052Z,5.54
2023-01-17T04:26:45.020Z,5.54
2023-01-17T04:27:45.000Z,5.51
2023-01-17T04:28:44.991Z,5.47
2023-01-17T04:29:46.725Z,5.36
2023-01-17T04:30:45.072Z,5.39
2023-01-17T04:31:45.044Z,5.33
2023-01-17T04:32:44.950Z,5.46
2023-01-17T04:33:44.959Z,5.51
2023-01-17T04:34:44.929Z,5.54
2023-01-17T04:35:44.921Z,5.48
2023-01-17T04:36:44.911Z,5.48
2023-01-17T04:37:44.920Z,5.36
2023-01-17T04:38:44.891Z,5.29
2023-01-17T04:39:44.879Z,5.29
2023-01-17T04:40:44.860Z,5.28
2023-01-17T04:41:44.848Z,5.25
2023-01-17T04:42:44.871Z,5.23
2023-01-17T04:43:44.838Z,5.15
2023-01-17T04:44:44.822Z,5.12
2023-01-17T04:45:44.808Z,5.17
2023-01-17T04:46:44.794Z,5.20
2023-01-17T04:47:44.779Z,5.18
2023-01-17T04:48:44.767Z,5.17
2023-01-17T04:49:44.789Z,5.07
2023-01-17T04:50:44.750Z,5.12
2023-01-17T04:51:44.748Z,5.18
2023-01-17T04:52:44.737Z,5.04
2023-01-17T04:53:44.764Z,5.07
2023-01-17T04:54:44.720Z,5.17
2023-01-17T04:55:44.798Z,5.17
2023-01-17T04:56:44.687Z,5.23
2023-01-17T04:57:44.677Z,5.28
2023-01-17T04:58:44.667Z,5.28
2023-01-17T04:59:44.667Z,5.26
2023-01-17T05:00:44.658Z,5.28
2023-01-17T05:01:44.678Z,5.32
2023-01-17T05:02:44.698Z,5.26
2023-01-17T05:03:44.608Z,5.25
2023-01-17T05:04:44.586Z,5.23
2023-01-17T05:05:44.702Z,5.15
2023-01-17T05:06:44.593Z,5.15
2023-01-17T05:07:44.555Z,5.15
2023-01-17T05:08:44.547Z,5.15
2023-01-17T05:09:44.535Z,4.78
2023-01-17T05:10:44.526Z,4.84
2023-01-17T05:11:44.536Z,4.97
2023-01-17T05:12:44.505Z,5.04
2023-01-17T05:13:44.485Z,5.04
2023-01-17T05:14:44.475Z,4.97
2023-01-17T05:15:44.478Z,4.94
2023-01-17T05:16:44.465Z,4.89
2023-01-17T05:17:44.520Z,4.87
2023-01-17T05:18:44.435Z,4.78
2023-01-17T05:19:44.434Z,4.62
2023-01-17T05:20:44.415Z,4.55
2023-01-17T05:21:44.402Z,4.59
2023-01-17T05:22:44.384Z,4.74
2023-01-17T05:23:44.393Z,4.84
2023-01-17T05:24:44.365Z,4.86
2023-01-17T05:25:44.522Z,4.84
2023-01-17T05:26:44.344Z,4.77
2023-01-17T05:27:44.335Z,4.60
2023-01-17T05:28:44.353Z,4.63
2023-01-17T05:29:44.305Z,4.63
2023-01-17T05:30:44.369Z,4.59
2023-01-17T05:31:44.283Z,4.41
2023-01-17T05:32:44.282Z,4.44
2023-01-17T05:33:44.265Z,4.34
2023-01-17T05:34:44.299Z,4.22
2023-01-17T05:35:44.243Z,4.28
2023-01-17T05:36:44.241Z,4.34
2023-01-17T05:37:44.255Z,4.31
2023-01-17T05:38:44.213Z,4.32
2023-01-17T05:39:44.197Z,4.17
2023-01-17T05:40:44.212Z,4.32
2023-01-17T05:41:44.173Z,4.34
2023-01-17T05:42:44.162Z,4.32
2023-01-17T05:43:44.152Z,4.31
2023-01-17T05:44:44.150Z,4.16
2023-01-17T05:45:44.164Z,4.10
2023-01-17T05:46:44.138Z,3.95
2023-01-17T05:47:44.115Z,4.01
2023-01-17T05:48:44.112Z,4.04
2023-01-17T05:49:45.930Z,3.91
2023-01-17T05:50:44.081Z,3.83
2023-01-17T05:51:44.083Z,3.94
2023-01-17T05:52:44.073Z,3.95
2023-01-17T05:53:44.043Z,3.99
2023-01-17T05:54:44.045Z,3.92
2023-01-17T05:55:44.027Z,3.87
2023-01-17T05:56:44.027Z,3.87
2023-01-17T05:57:44.023Z,3.81
2023-01-17T05:58:43.992Z,3.63
2023-01-17T05:59:43.986Z,3.65
2023-01-17T06:00:43.972Z,3.60
2023-01-17T06:01:43.962Z,3.66
2023-01-17T06:02:43.989Z,3.70
2023-01-17T06:03:43.952Z,3.78
2023-01-17T06:04:43.981Z,3.78
2023-01-17T06:05:43.916Z,3.84
2023-01-17T06:06:43.900Z,3.88
2023-01-17T06:07:43.890Z,3.87
2023-01-17T06:08:43.903Z,3.78
2023-01-17T06:09:43.871Z,3.73
2023-01-17T06:10:43.859Z,3.76
2023-01-17T06:11:43.844Z,3.74
2023-01-17T06:12:43.840Z,3.69
2023-01-17T06:13:43.823Z,3.63
2023-01-17T06:14:43.841Z,3.62
2023-01-17T06:15:43.842Z,3.60
2023-01-17T06:16:43.792Z,3.62
2023-01-17T06:17:43.834Z,3.62
2023-01-17T06:18:43.782Z,3.60
2023-01-17T06:19:43.759Z,3.62
2023-01-17T06:20:43.776Z,3.63
2023-01-17T06:21:43.739Z,3.68
2023-01-17T06:22:43.731Z,3.53
2023-01-17T06:23:43.713Z,3.59
2023-01-17T06:24:43.707Z,3.62
2023-01-17T06:25:43.737Z,3.59
2023-01-17T06:26:43.708Z,3.51
2023-01-17T06:27:43.673Z,3.45
2023-01-17T06:28:43.658Z,3.55
2023-01-17T06:29:43.648Z,3.53
2023-01-17T06:30:43.654Z,3.56
2023-01-17T06:31:43.636Z,3.58
2023-01-17T06:32:43.628Z,3.51
2023-01-17T06:33:43.607Z,3.53
2023-01-17T06:34:43.604Z,3.50
2023-01-17T06:35:43.620Z,3.50
2023-01-17T06:36:43.577Z,3.45
2023-01-17T06:37:43.607Z,3.44
2023-01-17T06:38:43.548Z,3.48
2023-01-17T06:39:44.115Z,3.59
2023-01-17T06:40:43.540Z,3.62
2023-01-17T06:41:43.517Z,3.63
2023-01-17T06:42:43.519Z,3.70
2023-01-17T06:43:43.508Z,3.74
2023-01-17T06:44:43.496Z,3.73
2023-01-17T06:45:43.486Z,3.76
2023-01-17T06:46:43.554Z,3.70
2023-01-17T06:47:43.450Z,3.63
2023-01-17T06:48:43.467Z,3.73
2023-01-17T06:49:43.425Z,3.70
2023-01-17T06:50:43.492Z,3.65
2023-01-17T06:51:43.785Z,3.66
2023-01-17T06:52:43.396Z,3.65
2023-01-17T06:53:43.387Z,3.68
2023-01-17T06:54:43.386Z,3.69
2023-01-17T06:55:43.365Z,3.73
2023-01-17T06:56:43.354Z,3.69
2023-01-17T06:57:43.335Z,3.68
2023-01-17T06:58:43.325Z,3.73
2023-01-17T06:59:43.345Z,3.68
2023-01-17T07:00:43.348Z,3.74
2023-01-17T07:01:43.319Z,3.70
2023-01-17T07:02:43.285Z,3.80
2023-01-17T07:03:43.351Z,3.77
2023-01-17T07:04:43.265Z,3.81
2023-01-17T07:05:43.267Z,3.81
2023-01-17T07:06:43.243Z,3.88
2023-01-17T07:07:43.225Z,3.86
2023-01-17T07:08:43.235Z,3.87
2023-01-17T07:09:43.204Z,3.91
2023-01-17T07:10:43.219Z,3.87
2023-01-17T07:11:43.183Z,3.84
2023-01-17T07:12:43.173Z,3.81
2023-01-17T07:13:43.171Z,3.81
2023-01-17T07:14:43.154Z,3.78
2023-01-17T07:15:43.155Z,3.88
2023-01-17T07:16:43.149Z,3.95
2023-01-17T07:17:43.113Z,3.74
2023-01-17T07:18:43.103Z,3.81
2023-01-17T07:19:43.166Z,3.74
2023-01-17T07:20:43.082Z,3.80
2023-01-17T07:21:43.116Z,3.84
2023-01-17T07:22:43.064Z,3.77
2023-01-17T07:23:43.051Z,3.83
2023-01-17T07:24:43.051Z,3.86
2023-01-17T07:25:43.039Z,3.92
2023-01-17T07:26:43.026Z,3.95
2023-01-17T07:27:43.023Z,3.84
2023-01-17T07:28:43.002Z,3.91
2023-01-17T07:29:42.984Z,3.92
2023-01-17T07:30:42.972Z,3.84
2023-01-17T07:31:42.990Z,3.87
2023-01-17T07:32:42.973Z,3.92
2023-01-17T07:33:42.942Z,3.99
2023-01-17T07:34:42.943Z,4.06
2023-01-17T07:35:42.934Z,4.16
2023-01-17T07:36:42.912Z,4.17
2023-01-17T07:37:42.891Z,4.14
2023-01-17T07:38:42.967Z,4.17
2023-01-17T07:39:42.895Z,4.16
2023-01-17T07:40:42.863Z,4.17
2023-01-17T07:41:42.860Z,4.16
2023-01-17T07:42:42.840Z,4.14
2023-01-17T07:43:42.831Z,4.14
2023-01-17T07:44:42.842Z,4.17
2023-01-17T07:45:42.813Z,4.13
2023-01-17T07:46:42.883Z,4.08
2023-01-17T07:47:42.796Z,4.04
2023-01-17T07:48:42.785Z,3.98
2023-01-17T07:49:42.762Z,3.96
2023-01-17T07:50:42.773Z,3.96
2023-01-17T07:51:42.744Z,3.98
2023-01-17T07:52:42.742Z,3.98
2023-01-17T07:53:42.722Z,4.02
2023-01-17T07:54:42.711Z,4.05
2023-01-17T07:55:42.780Z,4.04
2023-01-17T07:56:42.692Z,4.02
2023-01-17T07:57:42.672Z,4.13
2023-01-17T07:58:42.669Z,4.45
2023-01-17T07:59:42.659Z,4.86
2023-01-17T08:00:42.693Z,5.26
2023-01-17T08:01:42.716Z,5.68
2023-01-17T08:02:42.619Z,6.09
2023-01-17T08:03:42.662Z,6.48
2023-01-17T08:04:42.609Z,6.74
2023-01-17T08:05:42.660Z,7.14
2023-01-17T08:06:42.605Z,7.57
2023-01-17T08:07:42.568Z,7.82
2023-01-17T08:08:42.548Z,8.15
2023-01-17T08:09:42.554Z,8.41
2023-01-17T08:10:42.529Z,8.71
2023-01-17T08:11:42.538Z,9.04
2023-01-17T08:12:42.528Z,9.08
2023-01-17T08:13:42.506Z,9.03
2023-01-17T08:14:42.487Z,8.95
2023-01-17T08:15:42.479Z,9.04
2023-01-17T08:16:42.533Z,9.23
2023-01-17T08:17:42.457Z,9.47
2023-01-17T08:18:42.458Z,9.74
2023-01-17T08:19:42.434Z,10.01
2023-01-17T08:20:42.418Z,10.17
2023-01-17T08:21:42.408Z,10.30
2023-01-17T08:22:42.404Z,10.40
2023-01-17T08:23:42.387Z,10.35
2023-01-17T08:24:42.388Z,10.41
2023-01-17T08:25:42.367Z,10.53
2023-01-17T08:26:42.348Z,10.49
2023-01-17T08:27:42.343Z,10.22
2023-01-17T08:28:42.346Z,9.72
2023-01-17T08:29:42.346Z,9.65
2023-01-17T08:30:42.308Z,9.69
2023-01-17T08:31:42.323Z,9.89
2023-01-17T08:32:42.313Z,10.12
2023-01-17T08:33:42.286Z,10.46
2023-01-17T08:34:42.258Z,10.81
2023-01-17T08:35:42.276Z,11.05
2023-01-17T08:36:42.237Z,10.84
2023-01-17T08:37:42.229Z,10.86
2023-01-17T08:38:42.223Z,10.78
2023-01-17T08:39:42.262Z,10.72
2023-01-17T08:40:43.181Z,10.42
2023-01-17T08:41:42.237Z,10.19
2023-01-17T08:42:42.167Z,10.25
2023-01-17T08:43:42.171Z,10.59
2023-01-17T08:44:42.146Z,10.78
2023-01-17T08:45:42.170Z,11.04
2023-01-17T08:46:42.132Z,10.86
2023-01-17T08:47:42.137Z,10.82
2023-01-17T08:48:42.106Z,11.05
2023-01-17T08:49:42.097Z,11.26
2023-01-17T08:50:42.087Z,11.51
2023-01-17T08:51:42.068Z,11.75
2023-01-17T08:52:42.076Z,11.91
2023-01-17T08:53:42.058Z,11.94
2023-01-17T08:54:42.040Z,11.54
2023-01-17T08:55:42.051Z,11.29
2023-01-17T08:56:42.009Z,11.17
2023-01-17T08:57:42.006Z,11.10
2023-01-17T08:58:42.013Z,11.41
2023-01-17T08:59:41.987Z,11.72
2023-01-17T09:00:41.984Z,11.94
2023-01-17T09:01:42.221Z,12.03
2023-01-17T09:02:41.950Z,12.10
2023-01-17T09:03:41.970Z,11.66
2023-01-17T09:04:41.976Z,11.51
2023-01-17T09:05:41.925Z,11.47
2023-01-17T09:06:41.896Z,11.29
2023-01-17T09:07:41.915Z,11.22
2023-01-17T09:08:41.878Z,10.82
2023-01-17T09:09:41.878Z,10.89
2023-01-17T09:10:41.878Z,11.14
2023-01-17T09:11:41.876Z,11.22
2023-01-17T09:12:41.837Z,11.08
2023-01-17T09:13:41.828Z,11.35
2023-01-17T09:14:41.830Z,11.63
2023-01-17T09:15:48.870Z,12.04
2023-01-17T09:16:41.821Z,12.09
2023-01-17T09:17:41.809Z,12.29
2023-01-17T09:18:41.785Z,12.54
2023-01-17T09:19:42.360Z,12.72
2023-01-17T09:20:41.751Z,12.97
2023-01-17T09:21:41.754Z,13.01
2023-01-17T09:22:41.724Z,13.04
2023-01-17T09:23:41.717Z,13.08
2023-01-17T09:24:41.698Z,13.05
2023-01-17T09:25:41.758Z,12.42
2023-01-17T09:26:41.695Z,11.94
2023-01-17T09:27:41.664Z,11.86
2023-01-17T09:28:41.654Z,11.87
2023-01-17T09:29:41.652Z,11.57
2023-01-17T09:30:41.668Z,11.80
2023-01-17T09:31:41.630Z,12.00
2023-01-17T09:32:41.627Z,11.95
2023-01-17T09:33:41.609Z,12.22
2023-01-17T09:34:41.589Z,12.47
2023-01-17T09:35:41.585Z,12.65
2023-01-17T09:36:41.565Z,12.76
2023-01-17T09:37:41.556Z,12.76
2023-01-17T09:38:41.570Z,12.49
2023-01-17T09:39:41.535Z,11.87
2023-01-17T09:40:41.516Z,10.93
2023-01-17T09:41:41.506Z,10.16
2023-01-17T09:42:41.497Z,9.31
2023-01-17T09:43:41.485Z,8.70
2023-01-17T09:44:41.488Z,8.51
2023-01-17T09:45:41.486Z,8.41
2023-01-17T09:46:41.445Z,7.95
2023-01-17T09:47:41.445Z,7.97
2023-01-17T09:48:41.426Z,8.00
2023-01-17T09:49:41.445Z,7.98
2023-01-17T09:50:41.414Z,8.03
2023-01-17T09:51:41.403Z,8.12
2023-01-17T09:52:41.385Z,8.13
2023-01-17T09:53:41.376Z,7.94
2023-01-17T09:54:41.368Z,7.63
2023-01-17T09:55:41.378Z,7.70
2023-01-17T09:56:41.338Z,7.79
2023-01-17T09:57:41.325Z,7.83
2023-01-17T09:58:41.322Z,7.88
2023-01-17T09:59:44.337Z,7.85
2023-01-17T10:00:41.309Z,7.91
2023-01-17T10:01:41.458Z,7.67
2023-01-17T10:02:41.373Z,7.75
2023-01-17T10:03:41.416Z,7.75
2023-01-17T10:04:41.281Z,7.77
2023-01-17T10:05:41.246Z,7.80
2023-01-17T10:06:41.226Z,7.80
2023-01-17T10:07:41.236Z,7.63
2023-01-17T10:08:41.211Z,7.51
2023-01-17T10:09:41.194Z,7.50
2023-01-17T10:10:41.189Z,7.61
2023-01-17T10:11:41.175Z,7.56
2023-01-17T10:12:41.160Z,7.61
2023-01-17T10:13:41.164Z,7.69
2023-01-17T10:14:41.135Z,7.76
2023-01-17T10:15:41.134Z,7.77
2023-01-17T10:16:41.149Z,7.61
2023-01-17T10:17:41.146Z,7.47
2023-01-17T10:18:41.084Z,7.45
2023-01-17T10:19:41.094Z,7.47
2023-01-17T10:20:41.071Z,7.54
2023-01-17T10:21:41.054Z,7.45
2023-01-17T10:22:41.043Z,7.47
2023-01-17T10:23:41.037Z,7.50
2023-01-17T10:24:41.045Z,7.57
2023-01-17T10:25:41.018Z,7.57
2023-01-17T10:26:40.994Z,7.58
2023-01-17T10:27:40.998Z,7.66
2023-01-17T10:28:40.975Z,7.38
2023-01-17T10:29:40.964Z,7.33
2023-01-17T10:30:41.082Z,7.32
2023-01-17T10:31:40.950Z,7.36
2023-01-17T10:32:40.934Z,7.43
2023-01-17T10:33:40.914Z,7.48
2023-01-17T10:34:40.902Z,7.66
2023-01-17T10:35:40.907Z,7.75
2023-01-17T10:36:40.917Z,7.72
2023-01-17T10:37:40.874Z,7.79
2023-01-17T10:38:41.807Z,7.93
2023-01-17T10:39:40.843Z,8.10
2023-01-17T10:40:40.837Z,8.13
2023-01-17T10:41:40.822Z,8.23
2023-01-17T10:42:40.823Z,8.19
2023-01-17T10:43:40.805Z,8.34
2023-01-17T10:44:40.807Z,8.49
2023-01-17T10:45:40.783Z,8.53
2023-01-17T10:46:40.762Z,8.69
2023-01-17T10:47:40.804Z,8.78
2023-01-17T10:48:40.742Z,8.73
2023-01-17T10:49:40.733Z,8.66
2023-01-17T10:50:40.733Z,8.52
2023-01-17T10:51:40.717Z,8.60
2023-01-17T10:52:40.692Z,8.70
2023-01-17T10:53:40.703Z,8.78
2023-01-17T10:54:40.677Z,8.82
2023-01-17T10:55:40.673Z,8.91
2023-01-17T10:56:40.659Z,8.89
2023-01-17T10:57:40.643Z,8.97
2023-01-17T10:58:40.653Z,9.02
2023-01-17T10:59:40.622Z,9.08
2023-01-17T11:00:40.604Z,9.14
2023-01-17T11:01:40.677Z,9.06
2023-01-17T11:02:40.596Z,9.03
2023-01-17T11:03:40.584Z,8.95
2023-01-17T11:04:40.588Z,8.92
2023-01-17T11:05:40.562Z,8.24
2023-01-17T11:06:53.298Z,8.16
2023-01-17T11:07:41.534Z,8.26
2023-01-17T11:08:40.517Z,8.36
2023-01-17T11:09:40.502Z,8.45
2023-01-17T11:10:40.522Z,8.49
2023-01-17T11:11:40.491Z,8.49
2023-01-17T11:12:40.471Z,8.36
2023-01-17T11:13:40.465Z,8.36
2023-01-17T11:14:40.456Z,8.26
2023-01-17T11:15:40.482Z,8.15
2023-01-17T11:16:40.442Z,8.05
2023-01-17T11:17:40.422Z,8.13
2023-01-17T11:18:40.410Z,8.09
2023-01-17T11:19:40.396Z,8.12
2023-01-17T11:20:40.390Z,8.03
2023-01-17T11:21:40.413Z,7.90
2023-01-17T11:22:40.364Z,7.91
2023-01-17T11:23:40.351Z,7.87
2023-01-17T11:24:40.331Z,7.94
2023-01-17T11:25:40.373Z,8.08
2023-01-17T11:26:40.311Z,8.19
2023-01-17T11:27:40.324Z,8.41
2023-01-17T11:28:40.291Z,8.41
2023-01-17T11:29:40.284Z,8.48
2023-01-17T11:30:40.291Z,8.44
2023-01-17T11:31:40.261Z,8.44
2023-01-17T11:32:40.242Z,8.18
2023-01-17T11:33:40.262Z,7.93
2023-01-17T11:34:40.224Z,7.94
2023-01-17T11:35:40.242Z,7.63
2023-01-17T11:36:40.199Z,7.58
2023-01-17T11:37:40.199Z,7.72
2023-01-17T11:38:40.179Z,7.75
2023-01-17T11:39:40.195Z,7.79
2023-01-17T11:40:40.159Z,7.94
2023-01-17T11:41:40.141Z,8.00
2023-01-17T11:42:40.131Z,8.03
2023-01-17T11:43:40.121Z,8.09
2023-01-17T11:44:40.116Z,8.16
2023-01-17T11:45:40.548Z,8.09
2023-01-17T11:46:40.141Z,7.88
2023-01-17T11:47:40.070Z,7.80
2023-01-17T11:48:40.067Z,7.85
2023-01-17T11:49:40.073Z,8.03
2023-01-17T11:50:40.040Z,8.16
2023-01-17T11:51:40.054Z,8.41
2023-01-17T11:52:40.016Z,8.55
2023-01-17T11:53:40.035Z,8.42
2023-01-17T11:54:40.007Z,8.28
2023-01-17T11:55:39.988Z,8.26
2023-01-17T11:56:39.969Z,8.28
2023-01-17T11:57:39.971Z,8.33
2023-01-17T11:58:39.950Z,8.16
2023-01-17T11:59:39.942Z,8.10
2023-01-17T12:00:39.929Z,8.09
2023-01-17T12:01:39.923Z,8.10
2023-01-17T12:02:39.931Z,8.16
2023-01-17T12:03:39.962Z,7.98
2023-01-17T12:04:39.907Z,7.83
2023-01-17T12:05:39.872Z,7.82
2023-01-17T12:06:56.229Z,7.90
2023-01-17T12:07:40.869Z,7.72
2023-01-17T12:08:39.829Z,7.66
2023-01-17T12:09:39.829Z,7.51
2023-01-17T12:10:39.811Z,7.40
2023-01-17T12:11:39.799Z,7.35
2023-01-17T12:12:39.817Z,7.35
2023-01-17T12:13:39.814Z,7.24
2023-01-17T12:14:39.768Z,7.32
2023-01-17T12:15:39.770Z,7.51
2023-01-17T12:16:39.741Z,7.63
2023-01-17T12:17:39.743Z,7.61
2023-01-17T12:18:39.723Z,7.76
2023-01-17T12:19:39.731Z,7.88
2023-01-17T12:20:39.689Z,7.94
2023-01-17T12:21:39.687Z,7.90
2023-01-17T12:22:39.669Z,7.87
2023-01-17T12:23:39.659Z,7.77
2023-01-17T12:24:39.648Z,7.63
2023-01-17T12:25:39.664Z,7.51
2023-01-17T12:26:39.632Z,7.43
2023-01-17T12:27:40.049Z,7.36
2023-01-17T12:28:39.603Z,7.53
2023-01-17T12:29:39.589Z,7.32
2023-01-17T12:30:39.578Z,7.31
2023-01-17T12:31:39.658Z,7.43
2023-01-17T12:32:39.559Z,7.58
2023-01-17T12:33:39.558Z,7.73
2023-01-17T12:34:39.538Z,7.73
2023-01-17T12:35:39.528Z,7.76
2023-01-17T12:36:39.509Z,7.83
2023-01-17T12:37:39.525Z,7.90
2023-01-17T12:38:39.503Z,7.79
2023-01-17T12:39:39.476Z,7.70
2023-01-17T12:40:39.468Z,7.91
2023-01-17T12:41:39.456Z,7.91
2023-01-17T12:42:39.459Z,7.82
2023-01-17T12:43:39.453Z,8.08
2023-01-17T12:44:39.417Z,8.01
2023-01-17T12:45:39.409Z,8.09
2023-01-17T12:46:39.449Z,7.97
2023-01-17T12:47:39.392Z,8.00
2023-01-17T12:48:39.424Z,8.01
2023-01-17T12:49:39.359Z,8.00
2023-01-17T12:50:39.353Z,7.87
2023-01-17T12:51:39.357Z,8.01
2023-01-17T12:52:39.327Z,8.15
2023-01-17T12:53:39.330Z,8.12
2023-01-17T12:54:40.037Z,8.09
2023-01-17T12:55:39.298Z,8.19
2023-01-17T12:56:39.279Z,8.20
2023-01-17T12:57:39.277Z,8.23
2023-01-17T12:58:39.261Z,8.05
2023-01-17T12:59:39.250Z,8.09
2023-01-17T13:00:39.277Z,8.24
2023-01-17T13:01:39.324Z,8.28
2023-01-17T13:02:39.217Z,8.44
2023-01-17T13:03:39.197Z,8.37
2023-01-17T13:04:57.038Z,8.38
2023-01-17T13:05:40.202Z,8.38
2023-01-17T13:06:39.219Z,8.41
2023-01-17T13:07:39.157Z,8.51
2023-01-17T13:08:39.156Z,8.44
2023-01-17T13:09:39.161Z,8.23
2023-01-17T13:10:39.146Z,8.09
2023-01-17T13:11:39.177Z,8.08
2023-01-17T13:12:39.131Z,8.09
2023-01-17T13:13:39.086Z,8.03
2023-01-17T13:14:39.082Z,8.16
2023-01-17T13:15:39.089Z,8.28